createdAt,value
2022-08-01T00:01:45.233Z,59.60
2022-08-01T00:04:13.401Z,59.60
2022-08-01T00:06:41.536Z,59.60
2022-08-01T00:09:11.084Z,59.50
2022-08-01T00:12:06.392Z,59.50
2022-08-01T00:14:34.619Z,59.30
2022-08-01T00:17:07.258Z,59.20
2022-08-01T00:19:35.893Z,59.20
2022-08-01T00:22:04.550Z,59.30
2022-08-01T00:24:35.335Z,59.20
2022-08-01T00:27:03.583Z,59.10
2022-08-01T00:30:11.558Z,59.00
2022-08-01T00:32:19.998Z,59.00
2022-08-01T00:34:48.208Z,58.90
2022-08-01T00:37:17.732Z,58.90
2022-08-01T00:39:47.286Z,58.90
2022-08-01T00:42:15.505Z,58.80
2022-08-01T00:44:43.919Z,58.70
2022-08-01T00:47:12.087Z,58.70
2022-08-01T00:49:40.477Z,58.70
2022-08-01T00:52:10.325Z,58.70
2022-08-01T00:54:38.542Z,58.70
2022-08-01T00:57:09.989Z,58.60
2022-08-01T00:59:39.846Z,58.60
2022-08-01T01:02:15.058Z,58.50
2022-08-01T01:04:44.494Z,58.40
2022-08-01T01:07:21.157Z,58.40
2022-08-01T01:09:58.654Z,58.40
2022-08-01T01:12:38.315Z,58.30
2022-08-01T01:15:10.562Z,58.30
2022-08-01T01:17:51.314Z,58.20
2022-08-01T01:20:23.053Z,58.10
2022-08-01T01:23:08.032Z,58.10
2022-08-01T01:25:51.717Z,58.10
2022-08-01T01:28:31.816Z,58.00
2022-08-01T01:31:04.200Z,57.90
2022-08-01T01:33:34.159Z,58.60
2022-08-01T01:36:11.509Z,57.90
2022-08-01T01:38:44.201Z,57.80
2022-08-01T01:41:15.203Z,57.80
2022-08-01T01:43:44.719Z,57.70
2022-08-01T01:46:17.567Z,57.60
2022-08-01T01:48:47.415Z,57.60
2022-08-01T01:51:19.918Z,57.60
2022-08-01T01:53:50.135Z,57.50
2022-08-01T01:56:19.978Z,57.50
2022-08-01T01:58:53.397Z,57.60
2022-08-01T02:01:58.806Z,57.40
2022-08-01T02:04:14.695Z,57.40
2022-08-01T02:06:43.299Z,57.40
2022-08-01T02:09:12.564Z,57.30
2022-08-01T02:12:08.109Z,57.30
2022-08-01T02:14:30.994Z,57.30
2022-08-01T02:17:04.731Z,57.30
2022-08-01T02:19:37.848Z,57.20
2022-08-01T02:22:11.907Z,57.20
2022-08-01T02:24:44.240Z,57.10
2022-08-01T02:27:17.702Z,57.10
2022-08-01T02:29:52.027Z,57.10
2022-08-01T02:32:27.933Z,57.00
2022-08-01T02:35:03.516Z,57.10
2022-08-01T02:37:36.035Z,57.10
2022-08-01T02:40:04.767Z,57.00
2022-08-01T02:42:35.150Z,57.00
2022-08-01T02:45:06.816Z,56.90
2022-08-01T02:47:39.099Z,57.00
2022-08-01T02:50:09.425Z,56.90
2022-08-01T02:52:39.857Z,56.90
2022-08-01T02:55:10.480Z,56.90
2022-08-01T02:57:51.775Z,56.80
2022-08-01T03:00:45.520Z,56.80
2022-08-01T03:03:18.832Z,56.80
2022-08-01T03:05:47.924Z,56.80
2022-08-01T03:08:18.842Z,56.70
2022-08-01T03:10:48.690Z,56.70
2022-08-01T03:13:19.012Z,56.70
2022-08-01T03:15:48.995Z,56.60
2022-08-01T03:18:20.548Z,56.70
2022-08-01T03:20:49.041Z,56.60
2022-08-01T03:23:18.697Z,56.60
2022-08-01T03:25:47.622Z,57.20
2022-08-01T03:28:18.123Z,56.60
2022-08-01T03:30:47.729Z,56.50
2022-08-01T03:33:16.015Z,56.50
2022-08-01T03:35:51.776Z,56.50
2022-08-01T03:38:23.728Z,56.50
2022-08-01T03:40:56.113Z,56.50
2022-08-01T03:43:42.550Z,56.40
2022-08-01T03:46:17.545Z,56.20
2022-08-01T03:48:57.767Z,56.00
2022-08-01T03:51:27.816Z,56.00
2022-08-01T03:53:57.429Z,55.90
2022-08-01T03:56:27.814Z,55.90
2022-08-01T03:58:56.425Z,55.90
2022-08-01T04:01:25.474Z,55.80
2022-08-01T04:03:54.131Z,55.80
2022-08-01T04:06:22.330Z,55.70
2022-08-01T04:08:57.366Z,55.70
2022-08-01T04:11:28.182Z,55.70
2022-08-01T04:13:58.232Z,55.70
2022-08-01T04:16:27.193Z,55.60
2022-08-01T04:18:55.533Z,55.60
2022-08-01T04:21:28.600Z,55.60
2022-08-01T04:24:01.571Z,55.60
2022-08-01T04:26:31.309Z,55.60
2022-08-01T04:29:00.337Z,55.60
2022-08-01T04:31:30.745Z,55.50
2022-08-01T04:34:03.274Z,55.60
2022-08-01T04:36:34.523Z,55.50
2022-08-01T04:39:05.939Z,55.40
2022-08-01T04:41:36.877Z,55.50
2022-08-01T04:44:05.501Z,55.40
2022-08-01T04:46:35.747Z,55.40
2022-08-01T04:49:04.749Z,55.40
2022-08-01T04:51:32.973Z,55.80
2022-08-01T04:54:02.009Z,55.30
2022-08-01T04:56:31.552Z,55.40
2022-08-01T04:59:20.031Z,55.30
2022-08-01T05:01:52.093Z,55.30
2022-08-01T05:04:20.611Z,55.20
2022-08-01T05:06:48.731Z,55.20
2022-08-01T05:09:17.003Z,55.20
2022-08-01T05:11:46.547Z,55.20
2022-08-01T05:14:14.720Z,55.20
2022-08-01T05:16:42.893Z,55.20
2022-08-01T05:19:11.231Z,55.20
2022-08-01T05:21:39.457Z,55.10
2022-08-01T05:24:08.064Z,55.10
2022-08-01T05:26:36.966Z,55.10
2022-08-01T05:29:06.526Z,55.10
2022-08-01T05:31:35.814Z,55.10
2022-08-01T05:34:04.305Z,55.10
2022-08-01T05:36:32.503Z,55.10
2022-08-01T05:39:01.001Z,55.00
2022-08-01T05:41:29.185Z,55.10
2022-08-01T05:43:57.320Z,55.00
2022-08-01T05:46:27.514Z,55.00
2022-08-01T05:48:56.015Z,55.00
2022-08-01T05:51:24.346Z,55.00
2022-08-01T05:53:52.883Z,55.10
2022-08-01T05:56:21.092Z,55.60
2022-08-01T05:58:49.388Z,55.10
2022-08-01T06:01:17.769Z,55.70
2022-08-01T06:03:48.201Z,55.10
2022-08-01T06:06:16.363Z,55.10
2022-08-01T06:08:44.626Z,55.00
2022-08-01T06:11:13.335Z,55.00
2022-08-01T06:13:48.375Z,55.10
2022-08-01T06:16:17.364Z,55.10
2022-08-01T06:18:47.135Z,55.70
2022-08-01T06:21:15.284Z,55.10
2022-08-01T06:23:43.644Z,55.10
2022-08-01T06:26:12.126Z,55.10
2022-08-01T06:28:40.515Z,55.00
2022-08-01T06:31:08.647Z,55.00
2022-08-01T06:33:36.822Z,55.00
2022-08-01T06:36:07.029Z,55.00
2022-08-01T06:38:35.213Z,55.00
2022-08-01T06:41:03.367Z,55.00
2022-08-01T06:43:32.277Z,55.00
2022-08-01T06:46:09.352Z,55.00
2022-08-01T06:48:40.312Z,55.00
2022-08-01T06:51:10.034Z,55.00
2022-08-01T06:53:39.229Z,55.00
2022-08-01T06:56:09.679Z,55.00
2022-08-01T06:58:38.126Z,55.00
2022-08-01T07:01:08.256Z,55.00
2022-08-01T07:03:54.420Z,55.10
2022-08-01T07:06:25.497Z,55.10
2022-08-01T07:08:54.333Z,55.10
2022-08-01T07:11:23.384Z,55.10
2022-08-01T07:13:51.538Z,55.20
2022-08-01T07:16:20.018Z,55.20
2022-08-01T07:18:48.245Z,55.20
2022-08-01T07:21:39.125Z,55.20
2022-08-01T07:24:13.109Z,55.20
2022-08-01T07:26:52.632Z,55.30
2022-08-01T07:29:23.164Z,55.30
2022-08-01T07:31:51.302Z,55.30
2022-08-01T07:34:19.521Z,55.40
2022-08-01T07:36:47.981Z,55.40
2022-08-01T07:39:17.768Z,55.30
2022-08-01T07:42:06.177Z,55.30
2022-08-01T07:44:34.336Z,55.40
2022-08-01T07:47:02.582Z,55.40
2022-08-01T07:49:32.997Z,55.30
2022-08-01T07:52:25.561Z,55.40
2022-08-01T07:54:55.871Z,55.30
2022-08-01T07:57:24.123Z,55.40
2022-08-01T07:59:52.588Z,55.50
2022-08-01T08:02:20.790Z,55.50
2022-08-01T08:04:49.466Z,55.50
2022-08-01T08:07:18.012Z,55.50
2022-08-01T08:09:51.164Z,55.50
2022-08-01T08:12:28.754Z,55.50
2022-08-01T08:14:59.409Z,55.50
2022-08-01T08:17:27.875Z,55.50
2022-08-01T08:19:56.152Z,55.60
2022-08-01T08:22:24.297Z,55.50
2022-08-01T08:24:52.686Z,55.60
2022-08-01T08:27:22.204Z,55.60
2022-08-01T08:29:50.836Z,55.60
2022-08-01T08:32:19.036Z,55.60
2022-08-01T08:34:47.258Z,55.60
2022-08-01T08:37:15.896Z,55.60
2022-08-01T08:39:45.161Z,55.60
2022-08-01T08:42:29.507Z,55.70
2022-08-01T08:44:59.251Z,55.60
2022-08-01T08:47:34.520Z,55.60
2022-08-01T08:50:04.933Z,55.70
2022-08-01T08:52:37.459Z,55.70
2022-08-01T08:55:06.263Z,55.70
2022-08-01T08:57:34.959Z,55.70
2022-08-01T09:00:05.236Z,55.70
2022-08-01T09:02:33.360Z,55.70
2022-08-01T09:05:01.690Z,55.70
2022-08-01T09:07:30.272Z,55.60
2022-08-01T09:09:58.422Z,56.30
2022-08-01T09:12:26.611Z,55.60
2022-08-01T09:14:55.371Z,55.60
2022-08-01T09:17:25.162Z,55.70
2022-08-01T09:19:55.297Z,55.70
2022-08-01T09:22:27.037Z,56.30
2022-08-01T09:25:03.209Z,55.80
2022-08-01T09:27:31.925Z,55.70
2022-08-01T09:30:11.375Z,55.80
2022-08-01T09:32:56.519Z,55.80
2022-08-01T09:35:31.139Z,55.70
2022-08-01T09:38:20.426Z,55.80
2022-08-01T09:40:55.015Z,55.70
2022-08-01T09:43:26.161Z,55.70
2022-08-01T09:45:55.592Z,55.70
2022-08-01T09:48:29.890Z,55.70
2022-08-01T09:51:05.030Z,55.60
2022-08-01T09:53:51.209Z,55.60
2022-08-01T09:56:22.551Z,55.60
2022-08-01T09:59:01.410Z,55.60
2022-08-01T10:01:43.530Z,55.70
2022-08-01T10:04:15.194Z,55.70
2022-08-01T10:06:45.650Z,55.70
2022-08-01T10:09:15.703Z,55.70
2022-08-01T10:11:47.952Z,55.70
2022-08-01T10:14:18.133Z,55.70
2022-08-01T10:16:53.824Z,55.60
2022-08-01T10:19:36.623Z,55.60
2022-08-01T10:22:07.549Z,55.60
2022-08-01T10:24:40.298Z,55.60
2022-08-01T10:27:12.721Z,55.60
2022-08-01T10:30:05.591Z,55.60
2022-08-01T10:32:39.419Z,55.60
2022-08-01T10:35:15.706Z,55.60
2022-08-01T10:37:51.806Z,55.60
2022-08-01T10:40:30.958Z,55.60
2022-08-01T10:43:00.357Z,55.50
2022-08-01T10:45:30.216Z,55.50
2022-08-01T10:48:05.021Z,55.50
2022-08-01T10:50:40.928Z,55.50
2022-08-01T10:53:16.129Z,55.40
2022-08-01T10:55:53.654Z,55.40
2022-08-01T10:58:29.890Z,55.30
2022-08-01T11:01:19.660Z,55.30
2022-08-01T11:04:01.135Z,55.20
2022-08-01T11:06:44.205Z,55.20
2022-08-01T11:09:36.095Z,55.20
2022-08-01T11:12:13.287Z,55.20
2022-08-01T11:15:29.290Z,55.20
2022-08-01T11:18:01.154Z,55.20
2022-08-01T11:20:32.587Z,55.80
2022-08-01T11:23:36.671Z,55.10
2022-08-01T11:26:28.945Z,55.10
2022-08-01T11:29:22.551Z,55.10
2022-08-01T11:31:52.902Z,55.10
2022-08-01T11:34:21.871Z,55.10
2022-08-01T11:37:09.769Z,55.10
2022-08-01T11:39:40.241Z,55.10
2022-08-01T11:42:22.727Z,55.00
2022-08-01T11:44:52.672Z,55.00
2022-08-01T11:47:40.995Z,54.90
2022-08-01T11:50:29.674Z,54.90
2022-08-01T11:53:00.253Z,54.90
2022-08-01T11:55:32.167Z,54.90
2022-08-01T11:58:05.143Z,54.80
2022-08-01T12:00:34.358Z,54.80
2022-08-01T12:03:06.253Z,54.80
2022-08-01T12:05:37.889Z,54.80
2022-08-01T12:08:11.616Z,54.80
2022-08-01T12:10:49.705Z,54.70
2022-08-01T12:13:19.730Z,54.70
2022-08-01T12:15:50.550Z,54.70
2022-08-01T12:18:22.498Z,54.60
2022-08-01T12:20:56.695Z,54.70
2022-08-01T12:23:25.632Z,54.60
2022-08-01T12:25:55.598Z,54.60
2022-08-01T12:28:23.926Z,54.60
2022-08-01T12:30:52.821Z,54.60
2022-08-01T12:33:23.336Z,54.60
2022-08-01T12:35:54.228Z,54.50
2022-08-01T12:38:26.528Z,54.50
2022-08-01T12:40:56.883Z,54.50
2022-08-01T12:43:28.267Z,54.50
2022-08-01T12:45:59.339Z,54.50
2022-08-01T12:48:28.990Z,54.40
2022-08-01T12:51:01.603Z,54.30
2022-08-01T12:53:41.047Z,54.30
2022-08-01T12:56:12.431Z,54.30
2022-08-01T12:58:41.122Z,54.20
2022-08-01T13:01:11.823Z,54.20
2022-08-01T13:03:40.669Z,54.20
2022-08-01T13:06:17.426Z,54.10
2022-08-01T13:08:47.047Z,54.10
2022-08-01T13:11:19.509Z,54.10
2022-08-01T13:13:54.262Z,54.00
2022-08-01T13:16:30.658Z,53.90
2022-08-01T13:19:11.608Z,53.90
2022-08-01T13:21:54.140Z,53.80
2022-08-01T13:24:26.918Z,53.70
2022-08-01T13:26:59.976Z,53.70
2022-08-01T13:29:33.653Z,53.60
2022-08-01T13:32:27.620Z,53.60
2022-08-01T13:35:03.517Z,53.60
2022-08-01T13:37:32.421Z,53.50
2022-08-01T13:40:00.675Z,53.50
2022-08-01T13:42:31.259Z,53.50
2022-08-01T13:44:59.892Z,53.40
2022-08-01T13:47:31.713Z,53.40
2022-08-01T13:50:01.867Z,53.40
2022-08-01T13:52:30.567Z,53.40
2022-08-01T13:54:58.770Z,53.30
2022-08-01T13:57:36.860Z,53.30
2022-08-01T14:00:09.564Z,53.30
2022-08-01T14:02:37.900Z,53.20
2022-08-01T14:05:07.007Z,53.20
2022-08-01T14:07:35.242Z,53.80
2022-08-01T14:10:19.467Z,53.10
2022-08-01T14:12:48.940Z,53.10
2022-08-01T14:15:37.694Z,53.10
2022-08-01T14:18:07.852Z,53.00
2022-08-01T14:20:38.979Z,53.00
2022-08-01T14:23:09.075Z,53.00
2022-08-01T14:26:02.808Z,52.90
2022-08-01T14:28:28.387Z,52.90
2022-08-01T14:30:58.855Z,52.90
2022-08-01T14:33:27.846Z,52.80
2022-08-01T14:36:06.115Z,52.80
2022-08-01T14:38:46.807Z,52.80
2022-08-01T14:41:15.758Z,52.80
2022-08-01T14:43:44.186Z,52.80
2022-08-01T14:46:14.271Z,52.80
2022-08-01T14:48:42.517Z,52.80
2022-08-01T14:51:10.990Z,52.90
2022-08-01T14:53:40.294Z,52.80
2022-08-01T14:56:11.744Z,52.80
2022-08-01T14:58:39.889Z,52.80
2022-08-01T15:01:08.141Z,52.80
2022-08-01T15:03:39.009Z,52.70
2022-08-01T15:06:10.524Z,52.70
2022-08-01T15:08:38.772Z,52.70
2022-08-01T15:11:06.966Z,52.70
2022-08-01T15:13:37.125Z,52.60
2022-08-01T15:16:08.797Z,52.60
2022-08-01T15:18:43.076Z,52.60
2022-08-01T15:21:14.542Z,52.60
2022-08-01T15:23:45.472Z,52.60
2022-08-01T15:26:14.739Z,52.60
2022-08-01T15:28:42.889Z,52.50
2022-08-01T15:31:14.153Z,52.50
2022-08-01T15:33:43.924Z,52.50
2022-08-01T15:36:15.192Z,52.40
2022-08-01T15:38:43.634Z,52.40
2022-08-01T15:41:11.871Z,52.40
2022-08-01T15:43:44.269Z,52.30
2022-08-01T15:46:13.238Z,52.20
2022-08-01T15:48:43.358Z,52.20
2022-08-01T15:51:11.553Z,52.20
2022-08-01T15:53:40.200Z,52.10
2022-08-01T15:56:08.447Z,52.10
2022-08-01T15:58:36.669Z,52.10
2022-08-01T16:01:05.006Z,52.00
2022-08-01T16:03:33.329Z,52.70
2022-08-01T16:06:02.889Z,52.00
2022-08-01T16:08:36.585Z,52.00
2022-08-01T16:11:04.815Z,52.00
2022-08-01T16:13:32.962Z,51.90
2022-08-01T16:16:02.733Z,51.90
2022-08-01T16:18:30.859Z,52.00
2022-08-01T16:20:59.689Z,51.90
2022-08-01T16:23:29.401Z,51.90
2022-08-01T16:25:58.030Z,52.00
2022-08-01T16:28:26.445Z,51.90
2022-08-01T16:31:10.089Z,51.90
2022-08-01T16:33:53.298Z,51.80
2022-08-01T16:36:24.957Z,51.90
2022-08-01T16:38:54.721Z,51.90
2022-08-01T16:41:22.856Z,51.90
2022-08-01T16:43:53.528Z,51.90
2022-08-01T16:46:23.694Z,51.80
2022-08-01T16:48:52.133Z,51.80
2022-08-01T16:51:20.791Z,51.90
2022-08-01T16:53:49.007Z,51.80
2022-08-01T16:56:18.660Z,51.80
2022-08-01T16:58:46.819Z,51.80
2022-08-01T17:01:57.943Z,51.80
2022-08-01T17:04:03.962Z,51.80
2022-08-01T17:06:32.376Z,51.80
2022-08-01T17:09:00.567Z,51.80
2022-08-01T17:11:30.307Z,51.80
2022-08-01T17:13:58.458Z,51.80
2022-08-01T17:16:26.581Z,51.80
2022-08-01T17:18:54.846Z,51.80
2022-08-01T17:21:22.982Z,51.80
2022-08-01T17:23:51.243Z,51.80
2022-08-01T17:26:19.400Z,51.80
2022-08-01T17:28:49.007Z,51.80
2022-08-01T17:31:17.448Z,51.80
2022-08-01T17:33:48.629Z,51.80
2022-08-01T17:36:36.489Z,51.80
2022-08-01T17:39:06.133Z,51.80
2022-08-01T17:41:34.364Z,51.80
2022-08-01T17:44:04.394Z,51.80
2022-08-01T17:46:32.625Z,51.80
2022-08-01T17:49:01.933Z,51.80
2022-08-01T17:51:30.493Z,51.90
2022-08-01T17:53:59.166Z,51.90
2022-08-01T17:56:28.549Z,51.80
2022-08-01T17:58:57.163Z,51.90
2022-08-01T18:01:27.540Z,51.80
2022-08-01T18:03:57.643Z,51.90
2022-08-01T18:06:27.203Z,51.90
2022-08-01T18:08:59.761Z,51.90
2022-08-01T18:11:37.298Z,51.90
2022-08-01T18:14:06.004Z,51.90
2022-08-01T18:16:35.575Z,52.00
2022-08-01T18:19:06.631Z,52.00
2022-08-01T18:21:37.579Z,52.00
2022-08-01T18:24:09.527Z,52.00
2022-08-01T18:26:37.642Z,52.00
2022-08-01T18:29:09.975Z,52.00
2022-08-01T18:31:41.870Z,52.00
2022-08-01T18:34:10.250Z,52.70
2022-08-01T18:36:40.497Z,52.00
2022-08-01T18:39:10.900Z,52.00
2022-08-01T18:41:39.928Z,52.10
2022-08-01T18:44:09.118Z,52.10
2022-08-01T18:46:38.826Z,52.10
2022-08-01T18:49:09.666Z,52.10
2022-08-01T18:51:43.879Z,52.10
2022-08-01T18:54:13.262Z,52.10
2022-08-01T18:57:24.461Z,52.20
2022-08-01T18:59:53.746Z,52.20
2022-08-01T19:02:21.903Z,52.10
2022-08-01T19:04:51.472Z,52.20
2022-08-01T19:07:39.490Z,52.10
2022-08-01T19:10:08.447Z,52.20
2022-08-01T19:12:42.444Z,52.10
2022-08-01T19:15:11.582Z,52.20
2022-08-01T19:17:39.917Z,52.20
2022-08-01T19:20:10.803Z,52.20
2022-08-01T19:22:44.942Z,52.20
2022-08-01T19:25:15.902Z,52.20
2022-08-01T19:27:47.888Z,52.30
2022-08-01T19:30:17.088Z,52.20
2022-08-01T19:32:46.441Z,52.30
2022-08-01T19:35:17.900Z,52.40
2022-08-01T19:37:47.754Z,52.40
2022-08-01T19:40:26.930Z,52.30
2022-08-01T19:42:57.610Z,52.40
2022-08-01T19:45:29.391Z,52.40
2022-08-01T19:47:58.082Z,52.40
2022-08-01T19:50:29.416Z,52.40
2022-08-01T19:52:58.923Z,52.40
2022-08-01T19:55:28.625Z,52.40
2022-08-01T19:58:24.462Z,52.50
2022-08-01T20:00:49.296Z,52.50
2022-08-01T20:03:19.986Z,52.40
2022-08-01T20:05:50.293Z,53.10
2022-08-01T20:08:18.681Z,52.50
2022-08-01T20:10:47.853Z,52.60
2022-08-01T20:13:16.018Z,52.50
2022-08-01T20:15:45.250Z,52.60
2022-08-01T20:18:13.530Z,52.60
2022-08-01T20:20:41.694Z,52.50
2022-08-01T20:23:18.369Z,52.60
2022-08-01T20:25:49.726Z,52.70
2022-08-01T20:28:22.004Z,52.70
2022-08-01T20:30:54.942Z,52.70
2022-08-01T20:33:23.400Z,52.70
2022-08-01T20:35:54.053Z,52.70
2022-08-01T20:38:27.438Z,52.70
2022-08-01T20:40:58.701Z,52.70
2022-08-01T20:43:28.024Z,52.70
2022-08-01T20:45:57.569Z,52.70
2022-08-01T20:48:28.076Z,52.80
2022-08-01T20:51:13.991Z,52.80
2022-08-01T20:53:45.172Z,52.80
2022-08-01T20:56:18.047Z,52.80
2022-08-01T20:59:01.219Z,52.80
2022-08-01T21:01:31.978Z,52.80
2022-08-01T21:04:14.240Z,52.80
2022-08-01T21:06:47.101Z,52.80
2022-08-01T21:09:20.606Z,52.80
2022-08-01T21:11:55.485Z,52.80
2022-08-01T21:14:30.407Z,52.90
2022-08-01T21:17:02.248Z,52.90
2022-08-01T21:19:32.565Z,52.80
2022-08-01T21:22:10.249Z,52.80
2022-08-01T21:24:57.712Z,53.00
2022-08-01T21:27:33.591Z,52.90
2022-08-01T21:30:04.454Z,52.90
2022-08-01T21:32:34.544Z,52.90
2022-08-01T21:35:03.640Z,52.90
2022-08-01T21:37:32.218Z,52.90
2022-08-01T21:40:09.480Z,53.00
2022-08-01T21:42:40.639Z,53.00
2022-08-01T21:45:10.706Z,53.00
2022-08-01T21:47:39.166Z,53.00
2022-08-01T21:50:09.431Z,53.00
2022-08-01T21:52:44.990Z,53.00
2022-08-01T21:55:34.971Z,53.00
2022-08-01T21:58:16.533Z,53.00
2022-08-01T22:00:47.782Z,53.00
2022-08-01T22:03:24.729Z,53.10
2022-08-01T22:05:54.794Z,53.00
2022-08-01T22:08:30.921Z,53.00
2022-08-01T22:11:03.858Z,53.00
2022-08-01T22:13:32.347Z,53.00
2022-08-01T22:16:00.767Z,53.10
2022-08-01T22:18:29.380Z,53.10
2022-08-01T22:20:57.500Z,53.10
2022-08-01T22:23:25.753Z,53.10
2022-08-01T22:25:56.002Z,53.10
2022-08-01T22:28:25.576Z,53.10
2022-08-01T22:30:54.609Z,53.10
2022-08-01T22:33:22.923Z,53.10
2022-08-01T22:35:53.629Z,53.10
2022-08-01T22:38:23.550Z,53.10
2022-08-01T22:40:54.226Z,53.10
2022-08-01T22:43:29.205Z,53.10
2022-08-01T22:46:10.797Z,53.10
2022-08-01T22:48:46.311Z,53.00
2022-08-01T22:51:25.457Z,53.10
2022-08-01T22:54:05.355Z,53.00
2022-08-01T22:56:37.785Z,53.00
2022-08-01T22:59:13.505Z,53.10
2022-08-01T23:01:48.036Z,53.10
2022-08-01T23:04:33.126Z,53.10
2022-08-01T23:07:05.465Z,53.10
2022-08-01T23:09:39.228Z,53.00
2022-08-01T23:12:22.731Z,53.00
2022-08-01T23:14:53.929Z,52.90
2022-08-01T23:17:26.526Z,52.90
2022-08-01T23:19:58.876Z,52.90
2022-08-01T23:22:30.524Z,52.90
2022-08-01T23:25:04.439Z,52.90
2022-08-01T23:27:55.995Z,52.90
2022-08-01T23:30:26.065Z,52.90
2022-08-01T23:32:54.437Z,52.90
2022-08-01T23:35:23.647Z,52.90
2022-08-01T23:37:52.320Z,52.90
2022-08-01T23:40:20.888Z,52.90
2022-08-01T23:42:54.555Z,52.80
2022-08-01T23:45:24.389Z,52.80
2022-08-01T23:47:53.259Z,52.80
2022-08-01T23:50:22.387Z,52.80
2022-08-01T23:52:51.656Z,52.80
2022-08-01T23:55:24.468Z,52.80
2022-08-01T23:58:06.774Z,52.80
